Time;durP1;ratioP1;P1;durP2;ratioP2;P2;SDS_P1;SDS_P2;PMS_P1;PMS_P2;Temp;Humidity;BMP_temperature;BMP_pressure;BME280_temperature;BME280_humidity;BME280_pressure;Samples;Min_cycle;Max_cycle;Signal;HPM_P1;HPM_P2
2022/04/20 00:01:06;;;;;;;8.43;3.83;;;5.70;73.40;;;;;;4978701;28;20030;-82
2022/04/20 00:03:32;;;;;;;7.25;3.92;;;5.60;67.10;;;;;;4978020;28;20204;-82
2022/04/20 00:05:58;;;;;;;6.82;4.00;;;5.60;69.00;;;;;;4978301;28;20022;-82
2022/04/20 00:08:23;;;;;;;8.02;3.67;;;5.60;70.30;;;;;;4978197;28;20067;-81
2022/04/20 00:10:49;;;;;;;7.88;4.55;;;5.60;64.70;;;;;;4978243;28;20038;-81
2022/04/20 00:13:37;;;;;;;5.10;3.80;;;5.60;54.60;;;;;;4977904;28;20027;-82
2022/04/20 00:16:03;;;;;;;6.78;3.42;;;5.60;63.20;;;;;;4977805;28;20031;-81
2022/04/20 00:18:35;;;;;;;7.22;3.17;;;5.60;41.90;;;;;;4977075;28;20035;-81
2022/04/20 00:21:00;;;;;;;7.28;3.80;;;5.60;27.20;;;;;;4977623;28;20635;-81
2022/04/20 00:23:26;;;;;;;8.10;3.65;;;5.60;17.90;;;;;;4977800;28;20097;-81
2022/04/20 00:25:51;;;;;;;8.02;3.75;;;5.40;21.50;;;;;;4977447;28;20023;-81
2022/04/20 00:28:17;;;;;;;5.15;3.53;;;5.50;18.50;;;;;;4977432;28;20092;-81
2022/04/20 00:30:42;;;;;;;6.55;4.20;;;5.30;19.70;;;;;;4977424;28;20019;-81
2022/04/20 00:33:32;;;;;;;6.38;3.40;;;5.40;8.40;;;;;;4969144;28;20023;-82
2022/04/20 00:35:58;;;;;;;8.00;3.40;;;5.40;2.70;;;;;;4958058;28;20074;-81
2022/04/20 00:38:32;;;;;;;5.70;3.30;;;5.50;1.00;;;;;;4956090;28;20289;-81
2022/04/20 00:40:58;;;;;;;5.35;3.22;;;5.40;1.00;;;;;;4958088;28;20023;-81
2022/04/20 00:43:25;;;;;;;7.47;3.30;;;5.50;1.00;;;;;;4957846;28;20027;-81
2022/04/20 00:45:51;;;;;;;6.95;3.38;;;5.40;1.00;;;;;;4957891;28;20023;-81
2022/04/20 00:48:18;;;;;;;6.95;3.58;;;5.40;1.00;;;;;;4957754;28;20062;-81
2022/04/20 00:50:43;;;;;;;5.90;3.67;;;5.50;1.00;;;;;;4957683;28;20027;-81
2022/04/20 00:53:09;;;;;;;7.72;3.45;;;5.40;1.00;;;;;;4957554;28;20390;-81
2022/04/20 00:55:35;;;;;;;6.10;3.45;;;5.40;1.00;;;;;;4957602;28;20023;-81
2022/04/20 00:58:00;;;;;;;8.40;3.60;;;5.40;1.00;;;;;;4957602;28;20023;-81
2022/04/20 01:00:27;;;;;;;6.97;3.55;;;5.40;1.00;;;;;;4957548;28;20062;-81
2022/04/20 01:02:53;;;;;;;7.00;3.50;;;5.30;1.00;;;;;;4957242;28;20422;-81
2022/04/20 01:05:19;;;;;;;6.10;2.97;;;5.30;1.00;;;;;;4957338;28;20039;-81
2022/04/20 01:07:45;;;;;;;5.35;2.88;;;5.30;1.00;;;;;;4956063;29;20034;-81
2022/04/20 01:10:11;;;;;;;6.63;2.97;;;5.30;1.00;;;;;;4957318;28;20102;-81
2022/04/20 01:12:37;;;;;;;3.80;2.55;;;5.30;1.00;;;;;;4957244;28;20423;-81
2022/04/20 01:15:03;;;;;;;4.40;3.08;;;5.30;1.00;;;;;;4957131;28;20056;-83
2022/04/20 01:17:29;;;;;;;5.00;2.53;;;5.30;1.00;;;;;;4982124;28;20031;-81
2022/04/20 01:19:54;;;;;;;5.38;2.60;;;5.40;1.00;;;;;;4995831;28;20053;-81
2022/04/20 01:22:20;;;;;;;6.20;3.72;;;5.30;1.00;;;;;;4995965;28;20026;-81
2022/04/20 01:24:45;;;;;;;5.38;2.95;;;5.50;1.00;;;;;;4995779;28;20018;-81
2022/04/20 01:27:11;;;;;;;5.43;3.00;;;5.30;1.00;;;;;;4995781;28;20018;-81
2022/04/20 01:29:37;;;;;;;6.65;3.47;;;5.30;1.00;;;;;;4995726;28;20386;-81
2022/04/20 01:32:03;;;;;;;7.63;3.28;;;5.20;1.00;;;;;;4994482;28;20018;-81
2022/04/20 01:34:28;;;;;;;4.47;2.85;;;5.20;1.00;;;;;;4996019;28;20095;-82
2022/04/20 01:36:54;;;;;;;5.30;2.60;;;5.30;1.00;;;;;;4995880;28;20535;-82
2022/04/20 01:39:19;;;;;;;7.18;2.83;;;5.40;1.00;;;;;;4995457;28;20060;-81
2022/04/20 01:41:45;;;;;;;5.82;3.25;;;5.30;1.00;;;;;;4995522;28;20034;-83
2022/04/20 01:44:11;;;;;;;4.53;2.75;;;5.30;1.00;;;;;;4995836;28;20029;-83
2022/04/20 01:46:36;;;;;;;5.90;2.92;;;5.30;1.00;;;;;;4995739;28;20027;-82
2022/04/20 01:49:03;;;;;;;6.47;3.25;;;5.00;1.00;;;;;;4996562;28;20027;-82
2022/04/20 01:52:02;;;;;;;5.68;3.65;;;5.00;1.00;;;;;;4994727;28;20132;-82
2022/04/20 01:57:53;;;;;;;7.70;3.42;;;4.90;1.00;;;;;;5007178;28;20045;-82
2022/04/20 02:00:18;;;;;;;6.35;3.80;;;4.80;1.00;;;;;;4995289;28;20053;-82
2022/04/20 02:02:44;;;;;;;5.40;3.22;;;4.80;1.00;;;;;;4994932;28;20916;-82
2022/04/20 02:05:12;;;;;;;5.50;3.50;;;4.80;1.00;;;;;;4995249;28;20027;-82
2022/04/20 02:07:37;;;;;;;6.05;3.45;;;4.70;1.00;;;;;;4995011;28;20077;-82
2022/04/20 02:10:04;;;;;;;4.47;3.15;;;4.60;1.00;;;;;;4995150;28;20026;-83
2022/04/20 02:12:30;;;;;;;6.30;3.38;;;4.60;1.00;;;;;;4995025;28;20026;-83
2022/04/20 02:14:56;;;;;;;5.30;3.45;;;4.70;1.00;;;;;;4995197;28;20495;-83
2022/04/20 02:17:22;;;;;;;4.55;3.10;;;4.80;1.00;;;;;;4994875;28;20026;-82
2022/04/20 02:19:48;;;;;;;3.92;3.05;;;4.70;1.00;;;;;;4994791;28;20477;-82
2022/04/20 02:22:14;;;;;;;8.65;3.05;;;4.60;1.00;;;;;;4994771;28;20032;-82
2022/04/20 02:24:39;;;;;;;6.97;3.53;;;4.70;1.00;;;;;;4993525;28;20026;-81
2022/04/20 02:27:05;;;;;;;6.00;3.15;;;4.60;1.00;;;;;;4993339;28;20076;-82
2022/04/20 02:29:31;;;;;;;9.10;4.28;;;4.70;1.00;;;;;;4994983;28;20038;-83
2022/04/20 02:31:56;;;;;;;9.85;3.22;;;4.60;1.00;;;;;;4994975;28;20031;-83
2022/04/20 02:34:22;;;;;;;6.30;3.33;;;4.50;1.00;;;;;;4995037;28;20429;-83
2022/04/20 02:36:48;;;;;;;5.95;3.00;;;4.50;1.00;;;;;;4994760;28;20030;-83
2022/04/20 02:39:14;;;;;;;6.82;3.60;;;4.50;1.00;;;;;;4994603;28;20068;-83
2022/04/20 02:41:42;;;;;;;5.95;3.42;;;4.60;1.00;;;;;;4994418;28;20030;-82
2022/04/20 02:44:07;;;;;;;6.55;3.58;;;4.60;1.00;;;;;;4994584;28;20532;-82
2022/04/20 02:46:34;;;;;;;6.70;3.65;;;4.50;1.00;;;;;;4994423;28;20018;-82
2022/04/20 02:49:38;;;;;;;5.40;3.38;;;4.40;1.00;;;;;;4992952;28;20104;-82
2022/04/20 02:52:04;;;;;;;11.68;3.60;;;4.40;1.00;;;;;;4994582;28;20030;-82
2022/04/20 02:57:51;;;;;;;5.80;3.50;;;4.50;1.00;;;;;;4994514;28;20029;-82
2022/04/20 03:00:16;;;;;;;4.88;3.25;;;4.40;1.00;;;;;;4994291;28;20038;-82
2022/04/20 03:02:43;;;;;;;6.57;3.10;;;4.30;1.00;;;;;;4993889;28;20054;-83
2022/04/20 03:05:09;;;;;;;6.50;3.47;;;4.20;1.00;;;;;;4994438;28;20438;-82
2022/04/20 03:07:35;;;;;;;6.20;3.63;;;4.30;1.00;;;;;;4994258;28;20022;-82
2022/04/20 03:10:00;;;;;;;4.60;3.35;;;4.30;1.00;;;;;;4993073;28;20033;-82
2022/04/20 03:12:26;;;;;;;5.95;3.35;;;4.10;1.00;;;;;;4994136;28;20018;-82
2022/04/20 03:14:54;;;;;;;6.93;3.53;;;4.00;1.00;;;;;;4994750;28;20089;-83
2022/04/20 03:17:21;;;;;;;6.32;3.83;;;4.00;1.00;;;;;;4994187;28;20026;-82
2022/04/20 03:19:47;;;;;;;6.65;3.38;;;3.90;1.00;;;;;;4993966;28;20033;-82
2022/04/20 03:22:13;;;;;;;6.50;3.97;;;3.80;1.00;;;;;;4993916;28;20076;-82
2022/04/20 03:24:38;;;;;;;5.72;3.40;;;3.80;1.00;;;;;;4992841;28;20441;-82
2022/04/20 03:27:04;;;;;;;7.43;4.47;;;3.80;1.00;;;;;;4993978;28;20022;-82
2022/04/20 03:33:32;;;;;;;5.70;3.67;;;4.00;1.00;;;;;;4994252;28;20026;-83
2022/04/20 03:35:57;;;;;;;8.00;4.25;;;3.90;1.00;;;;;;4994464;28;20038;-83
2022/04/20 03:38:23;;;;;;;5.88;4.05;;;3.80;1.00;;;;;;4993891;28;20029;-83
2022/04/20 03:40:49;;;;;;;5.75;3.92;;;3.80;1.00;;;;;;4994068;28;20026;-82
2022/04/20 03:43:15;;;;;;;7.40;4.18;;;3.70;6.10;;;;;;4994189;28;20022;-83
2022/04/20 03:45:40;;;;;;;7.40;4.18;;;3.70;10.60;;;;;;4993720;28;20069;-82
2022/04/20 03:48:06;;;;;;;9.27;3.85;;;3.50;4.40;;;;;;4993610;28;20018;-82
2022/04/20 03:50:32;;;;;;;5.75;3.72;;;3.50;20.60;;;;;;4993693;28;20035;-82
2022/04/20 03:52:58;;;;;;;7.60;3.60;;;3.50;19.90;;;;;;4992396;28;20073;-82
2022/04/20 03:55:24;;;;;;;6.63;4.10;;;3.40;16.40;;;;;;4993556;28;20109;-82
2022/04/20 03:57:49;;;;;;;7.25;4.45;;;3.30;18.60;;;;;;4993653;28;20137;-82
2022/04/20 04:00:15;;;;;;;8.15;3.92;;;3.10;28.60;;;;;;4992179;28;20429;-82
2022/04/20 04:02:40;;;;;;;6.75;3.75;;;3.20;41.90;;;;;;4993206;28;20061;-83
2022/04/20 04:05:06;;;;;;;6.75;3.90;;;3.30;41.80;;;;;;4993438;28;20023;-82
2022/04/20 04:07:32;;;;;;;6.65;3.88;;;3.20;45.90;;;;;;4993754;28;20054;-80
2022/04/20 04:09:57;;;;;;;7.03;4.10;;;3.20;47.10;;;;;;4992092;28;20031;-81
2022/04/20 04:12:23;;;;;;;5.45;3.35;;;3.20;52.30;;;;;;4993366;28;20027;-81
2022/04/20 04:14:49;;;;;;;7.28;3.60;;;3.30;46.90;;;;;;4994906;28;20058;-82
2022/04/20 04:17:15;;;;;;;6.72;4.28;;;3.30;43.80;;;;;;4997359;28;20026;-81
2022/04/20 04:19:40;;;;;;;8.77;3.97;;;3.30;48.20;;;;;;4995640;28;20026;-81
2022/04/20 04:22:06;;;;;;;6.70;4.30;;;3.30;45.40;;;;;;4996776;28;20022;-81
2022/04/20 04:24:34;;;;;;;6.35;3.90;;;3.30;67.40;;;;;;4996651;28;20030;-81
2022/04/20 04:27:00;;;;;;;5.85;4.05;;;3.30;72.50;;;;;;4995744;28;20450;-80
2022/04/20 04:29:26;;;;;;;5.45;3.70;;;3.30;70.80;;;;;;4977535;28;20106;-80
2022/04/20 04:31:52;;;;;;;6.93;4.28;;;3.20;73.40;;;;;;4977285;28;20050;-81
2022/04/20 04:34:17;;;;;;;7.95;4.05;;;3.30;56.90;;;;;;4977297;28;20027;-83
2022/04/20 04:36:43;;;;;;;8.68;4.28;;;3.30;54.90;;;;;;4975987;28;20106;-81
2022/04/20 04:39:09;;;;;;;10.30;4.50;;;3.20;81.10;;;;;;4977075;28;20030;-83
2022/04/20 04:41:38;;;;;;;6.00;3.95;;;3.30;75.90;;;;;;4977730;28;20038;-83
2022/04/20 04:44:04;;;;;;;7.22;4.13;;;3.30;71.50;;;;;;4979037;28;20482;-82
2022/04/20 04:49:14;;;;;;;7.50;4.20;;;3.30;62.40;;;;;;4959325;28;20062;-82
2022/04/20 04:51:39;;;;;;;7.65;4.55;;;3.40;69.10;;;;;;4957595;28;20063;-82
2022/04/20 04:54:05;;;;;;;9.40;3.80;;;3.40;50.10;;;;;;4974693;28;20023;-81
2022/04/20 04:56:52;;;;;;;10.63;5.07;;;3.50;52.90;;;;;;4976283;28;20027;-81
2022/04/20 04:59:18;;;;;;;7.25;3.58;;;3.60;34.50;;;;;;4973172;28;20027;-81
2022/04/20 05:01:44;;;;;;;5.57;3.65;;;3.70;27.70;;;;;;4987917;28;20026;-81
2022/04/20 05:04:11;;;;;;;6.18;3.53;;;3.70;18.90;;;;;;4991100;28;20061;-81
2022/04/20 05:06:37;;;;;;;6.90;4.32;;;3.70;25.40;;;;;;4967799;28;20463;-81
2022/04/20 05:09:02;;;;;;;7.75;4.55;;;3.80;20.30;;;;;;4968568;28;20089;-81
2022/04/20 05:11:28;;;;;;;6.57;4.05;;;4.00;10.40;;;;;;4957546;28;20395;-81
2022/04/20 05:13:54;;;;;;;7.85;4.35;;;4.00;1.00;;;;;;4957352;28;20023;-82
2022/04/20 05:16:20;;;;;;;6.93;4.47;;;4.10;1.00;;;;;;4967595;28;20034;-81
2022/04/20 05:18:45;;;;;;;8.25;4.22;;;4.30;2.10;;;;;;4969827;28;20070;-81
2022/04/20 05:21:11;;;;;;;7.13;4.00;;;4.30;1.00;;;;;;4971820;28;20379;-80
2022/04/20 05:23:36;;;;;;;6.93;4.38;;;4.40;1.00;;;;;;4968085;28;20023;-80
2022/04/20 05:26:02;;;;;;;7.50;4.50;;;4.40;1.00;;;;;;4975036;28;20497;-80
2022/04/20 05:28:27;;;;;;;6.85;4.03;;;4.60;1.00;;;;;;4975943;28;20027;-81
2022/04/20 05:30:54;;;;;;;7.97;4.28;;;4.80;1.00;;;;;;4976103;28;20387;-81
2022/04/20 05:33:20;;;;;;;6.43;4.30;;;4.80;1.00;;;;;;4974903;28;20070;-81
2022/04/20 05:35:45;;;;;;;8.02;4.90;;;4.80;1.00;;;;;;4974966;28;20027;-81
2022/04/20 05:43:39;;;;;;;8.85;5.00;;;11.30;99.90;;;;;;4969485;28;20079;-81
2022/04/20 05:46:05;;;;;;;7.55;4.10;;;12.00;99.90;;;;;;4956535;28;20301;-81
2022/04/20 05:48:32;;;;;;;7.25;4.40;;;12.50;99.90;;;;;;4956758;29;20020;-82
2022/04/20 05:50:57;;;;;;;7.07;4.43;;;11.00;99.90;;;;;;4956555;28;20110;-82
2022/04/20 05:53:23;;;;;;;7.13;4.53;;;9.00;99.90;;;;;;4956870;28;20062;-81
2022/04/20 05:55:48;;;;;;;10.65;4.45;;;8.00;99.90;;;;;;4956387;29;20471;-80
2022/04/20 05:58:26;;;;;;;7.25;4.30;;;7.60;1.00;;;;;;4956144;28;20054;-80
2022/04/20 06:00:52;;;;;;;6.80;3.60;;;7.60;1.00;;;;;;4954968;29;20035;-80
2022/04/20 06:03:18;;;;;;;7.45;4.80;;;7.50;1.00;;;;;;4955885;28;20047;-80
2022/04/20 06:05:43;;;;;;;8.63;4.32;;;7.40;1.00;;;;;;4970053;28;20031;-80
2022/04/20 06:08:09;;;;;;;8.73;4.10;;;7.40;1.00;;;;;;4975003;28;20071;-80
2022/04/20 06:10:34;;;;;;;4.88;3.45;;;7.20;1.00;;;;;;4955986;28;20047;-80
2022/04/20 06:13:00;;;;;;;5.32;3.97;;;7.30;1.00;;;;;;4962231;28;20038;-80
2022/04/20 06:15:26;;;;;;;4.70;3.05;;;7.40;1.00;;;;;;4959836;28;20031;-80
2022/04/20 06:17:51;;;;;;;7.20;4.60;;;7.50;1.00;;;;;;4971707;28;20046;-81
2022/04/20 06:20:17;;;;;;;4.57;3.05;;;7.50;1.00;;;;;;4983262;28;20031;-80
2022/04/20 06:22:43;;;;;;;6.53;4.10;;;7.60;1.00;;;;;;4974218;28;20023;-80
2022/04/20 06:25:08;;;;;;;6.88;4.22;;;7.70;1.00;;;;;;4962536;28;20074;-80
2022/04/20 06:27:34;;;;;;;8.10;4.18;;;7.70;1.00;;;;;;4956080;28;20138;-80
2022/04/20 06:30:00;;;;;;;6.82;4.18;;;7.80;1.00;;;;;;4957433;28;20477;-80
2022/04/20 06:32:25;;;;;;;6.47;4.18;;;8.00;1.00;;;;;;4955952;28;20084;-80
2022/04/20 06:34:57;;;;;;;7.55;4.57;;;8.20;1.00;;;;;;4955888;28;20026;-80
2022/04/20 06:37:24;;;;;;;5.15;3.97;;;10.20;99.90;;;;;;4954815;28;20060;-80
2022/04/20 06:39:49;;;;;;;6.70;4.38;;;14.80;99.90;;;;;;4960905;28;20496;-80
2022/04/20 06:42:15;;;;;;;7.38;4.10;;;17.30;99.90;;;;;;4977518;28;20042;-81
2022/04/20 06:44:41;;;;;;;6.82;4.25;;;17.70;99.90;;;;;;4960948;28;20065;-80
2022/04/20 06:47:07;;;;;;;6.13;4.05;;;18.30;99.90;;;;;;4972516;28;20034;-80
2022/04/20 06:49:33;;;;;;;5.25;3.28;;;18.70;99.90;;;;;;4961839;28;20031;-79
2022/04/20 07:00:32;;;;;;;6.70;3.70;;;21.90;99.90;;;;;;4938939;29;20058;-80
2022/04/20 07:03:02;;;;;;;4.15;2.92;;;21.90;99.90;;;;;;4926858;29;20691;-80
2022/04/20 07:05:28;;;;;;;5.95;3.90;;;22.90;99.90;;;;;;4939747;28;20043;-81
2022/04/20 07:07:53;;;;;;;6.03;3.90;;;22.10;99.90;;;;;;4958352;28;20022;-81
2022/04/20 07:10:19;;;;;;;5.00;3.35;;;23.60;99.90;;;;;;4962186;28;20465;-81
2022/04/20 07:12:45;;;;;;;5.80;3.97;;;23.90;99.90;;;;;;4960047;28;20077;-81
2022/04/20 07:15:10;;;;;;;5.05;3.50;;;23.30;99.90;;;;;;4962545;28;20030;-81
2022/04/20 07:17:36;;;;;;;5.88;3.92;;;23.80;99.90;;;;;;4978716;28;20019;-81
2022/04/20 07:20:02;;;;;;;4.55;3.20;;;23.30;99.90;;;;;;4980055;28;20155;-81
2022/04/20 07:22:27;;;;;;;4.65;3.70;;;22.00;99.90;;;;;;4963364;28;20027;-80
2022/04/20 07:24:53;;;;;;;4.40;3.00;;;23.50;99.90;;;;;;4963532;28;20027;-80
2022/04/20 07:27:19;;;;;;;4.13;3.05;;;22.70;99.90;;;;;;4955048;28;20368;-81
2022/04/20 07:29:44;;;;;;;4.15;3.05;;;23.00;99.90;;;;;;4972240;28;20154;-81
2022/04/20 07:32:10;;;;;;;5.97;2.85;;;24.90;99.90;;;;;;4985166;28;20613;-81
2022/04/20 07:34:35;;;;;;;4.82;3.10;;;24.30;99.90;;;;;;4963914;28;20023;-81
2022/04/20 07:37:01;;;;;;;3.28;2.90;;;25.30;99.90;;;;;;4955318;28;20490;-81
2022/04/20 07:39:26;;;;;;;6.38;3.00;;;24.10;99.90;;;;;;4959431;28;20030;-82
2022/04/20 07:41:52;;;;;;;3.25;2.80;;;25.10;99.90;;;;;;4964622;28;20039;-82
2022/04/20 07:44:17;;;;;;;5.13;2.97;;;24.60;99.90;;;;;;4963681;28;20077;-80
2022/04/20 07:46:43;;;;;;;5.22;2.90;;;24.50;99.90;;;;;;4964410;28;20027;-80
2022/04/20 07:51:53;;;;;;;3.30;2.65;;;25.20;99.90;;;;;;4965822;28;20042;-77
2022/04/20 07:54:18;;;;;;;2.83;2.45;;;24.50;99.90;;;;;;4961420;28;20031;-78
2022/04/20 07:56:44;;;;;;;3.00;2.40;;;25.80;99.90;;;;;;4971291;28;20059;-78
2022/04/20 07:59:09;;;;;;;2.50;2.15;;;27.10;99.90;;;;;;4972223;28;20050;-79
2022/04/20 08:01:35;;;;;;;3.33;2.75;;;26.80;99.90;;;;;;4975161;28;20027;-77
2022/04/20 08:04:00;;;;;;;5.57;3.17;;;25.80;99.90;;;;;;4967305;28;20039;-77
2022/04/20 08:06:27;;;;;;;3.00;2.40;;;26.00;99.90;;;;;;4966522;28;20526;-77
2022/04/20 08:08:52;;;;;;;3.03;2.53;;;24.80;99.90;;;;;;4957933;28;20082;-77
2022/04/20 08:11:18;;;;;;;3.60;3.05;;;24.40;99.90;;;;;;4973317;28;20038;-77
2022/04/20 08:16:29;;;;;;;3.03;2.38;;;25.20;99.90;;;;;;4966289;28;20066;-77
2022/04/20 08:18:54;;;;;;;6.05;3.10;;;25.40;99.90;;;;;;4970582;28;20445;-77
2022/04/20 08:21:20;;;;;;;3.13;2.78;;;25.60;99.90;;;;;;4963236;28;20111;-77
2022/04/20 08:23:46;;;;;;;3.65;2.90;;;26.30;99.90;;;;;;4967745;28;20050;-76
2022/04/20 08:26:13;;;;;;;3.80;3.10;;;25.50;99.90;;;;;;4971849;28;20098;-76
2022/04/20 08:28:39;;;;;;;4.80;2.78;;;28.30;99.90;;;;;;4961865;28;20031;-77
2022/04/20 08:31:04;;;;;;;3.53;2.50;;;26.20;99.90;;;;;;4963633;28;20082;-77
2022/04/20 08:33:30;;;;;;;3.67;2.88;;;25.40;99.90;;;;;;4968470;28;20522;-78
2022/04/20 08:35:56;;;;;;;2.58;2.20;;;26.00;99.90;;;;;;4963316;28;20097;-77
2022/04/20 08:38:22;;;;;;;3.45;2.33;;;26.00;99.90;;;;;;4971686;28;20101;-78
2022/04/20 08:40:49;;;;;;;3.33;2.58;;;25.30;99.90;;;;;;4967565;28;20026;-76
2022/04/20 08:43:15;;;;;;;4.20;2.67;;;26.00;99.90;;;;;;4963548;28;20031;-77
2022/04/20 08:45:41;;;;;;;3.03;2.38;;;26.20;99.90;;;;;;4965775;28;20046;-78
2022/04/20 08:48:07;;;;;;;3.40;3.03;;;25.30;99.90;;;;;;4973256;28;20466;-78
2022/04/20 08:50:33;;;;;;;3.55;2.40;;;27.00;99.90;;;;;;4967045;28;20062;-81
2022/04/20 08:52:58;;;;;;;3.13;2.53;;;25.80;99.90;;;;;;4958015;28;20024;-79
2022/04/20 08:55:25;;;;;;;2.70;2.35;;;24.30;99.90;;;;;;4962080;28;20039;-79
2022/04/20 08:57:55;;;;;;;5.15;2.92;;;25.60;99.90;;;;;;4963362;28;20529;-79
2022/04/20 09:00:23;;;;;;;2.30;2.10;;;25.70;99.90;;;;;;4964715;28;20034;-76
2022/04/20 09:02:55;;;;;;;4.22;2.65;;;25.90;99.90;;;;;;4967411;28;20406;-76
2022/04/20 09:05:21;;;;;;;2.47;2.05;;;26.40;99.90;;;;;;4973439;28;20031;-76
2022/04/20 09:07:47;;;;;;;3.22;2.25;;;26.50;99.90;;;;;;4969608;28;20114;-76
2022/04/20 09:10:13;;;;;;;3.05;2.75;;;26.10;99.90;;;;;;4967856;28;20526;-77
2022/04/20 09:12:43;;;;;;;3.25;2.08;;;26.60;99.90;;;;;;4970912;28;20036;-77
2022/04/20 09:15:09;;;;;;;2.40;2.20;;;24.70;99.90;;;;;;4966525;28;20019;-78
2022/04/20 09:17:45;;;;;;;3.00;2.22;;;25.70;99.90;;;;;;4977549;28;20019;-77
2022/04/20 09:20:18;;;;;;;2.70;2.28;;;25.20;99.90;;;;;;4972231;28;20030;-78
2022/04/20 09:23:10;;;;;;;4.53;2.10;;;24.20;99.90;;;;;;4963967;28;20098;-78
2022/04/20 09:25:38;;;;;;;3.05;1.80;;;23.80;99.90;;;;;;4968745;28;20031;-78
2022/04/20 09:28:04;;;;;;;3.13;2.28;;;24.90;99.90;;;;;;4976193;28;20022;-78
2022/04/20 09:30:41;;;;;;;2.15;1.95;;;25.80;99.90;;;;;;4976331;28;20047;-78
2022/04/20 09:33:09;;;;;;;3.47;2.20;;;25.00;99.90;;;;;;4976688;28;20022;-78
2022/04/20 09:35:49;;;;;;;5.13;2.47;;;26.20;99.90;;;;;;4972708;28;20434;-78
2022/04/20 09:38:18;;;;;;;3.13;2.30;;;26.10;99.90;;;;;;4961184;28;20753;-78
2022/04/20 09:40:43;;;;;;;2.95;2.38;;;26.20;99.90;;;;;;4958573;28;20043;-78
2022/04/20 09:43:15;;;;;;;3.03;2.55;;;27.00;99.90;;;;;;4972408;28;20023;-78
2022/04/20 09:45:41;;;;;;;3.03;2.40;;;27.60;99.90;;;;;;4966612;28;20054;-78
2022/04/20 09:51:13;;;;;;;2.22;2.03;;;25.80;99.90;;;;;;4953774;28;20558;-78
2022/04/20 09:53:40;;;;;;;2.58;1.55;;;27.80;99.90;;;;;;4969239;28;20394;-78
2022/04/20 09:56:19;;;;;;;2.22;2.00;;;25.70;99.90;;;;;;4961920;28;20027;-78
2022/04/20 09:58:45;;;;;;;2.70;1.80;;;26.20;99.90;;;;;;4958608;28;20398;-77
2022/04/20 10:01:32;;;;;;;3.53;1.90;;;26.40;99.90;;;;;;4958557;28;20023;-78
2022/04/20 10:03:59;;;;;;;1.80;1.67;;;22.20;99.90;;;;;;4974506;28;20177;-76
2022/04/20 10:06:25;;;;;;;1.73;1.60;;;25.20;99.90;;;;;;4974429;28;20023;-77
2022/04/20 10:08:51;;;;;;;2.83;1.55;;;26.00;99.90;;;;;;4974186;28;20430;-77
2022/04/20 10:11:19;;;;;;;2.85;1.60;;;25.40;99.90;;;;;;4977411;28;20031;-78
2022/04/20 10:16:05;;;;;;;2.03;1.52;;;26.10;99.90;;;;;;4993057;28;20418;-80
2022/04/20 10:16:32;;;;;;;1.88;1.38;;;27.30;99.90;;;;;;4976556;28;20342;-80
2022/04/20 10:18:57;;;;;;;2.00;1.20;;;24.90;99.90;;;;;;4961333;28;20055;-80
2022/04/20 10:21:27;;;;;;;1.73;1.58;;;24.60;99.90;;;;;;4961823;28;20106;-81
2022/04/20 10:23:58;;;;;;;1.40;1.30;;;25.60;99.90;;;;;;4960678;28;20114;-79
2022/04/20 10:26:25;;;;;;;1.20;1.10;;;24.10;99.90;;;;;;4963425;28;20126;-79
2022/04/20 10:29:16;;;;;;;1.15;0.93;;;24.00;99.90;;;;;;4957251;28;20122;-79
2022/04/20 10:31:53;;;;;;;2.58;1.38;;;23.00;99.90;;;;;;4960452;28;20052;-80
2022/04/20 10:34:19;;;;;;;1.65;1.20;;;24.10;99.90;;;;;;4965277;28;20063;-79
2022/04/20 10:37:00;;;;;;;1.45;1.35;;;22.80;99.90;;;;;;4972233;28;20054;-79
2022/04/20 10:39:29;;;;;;;1.30;0.85;;;22.80;99.90;;;;;;4960033;28;20034;-79
2022/04/20 10:42:17;;;;;;;1.33;1.05;;;24.10;99.90;;;;;;4953492;28;20023;-79
2022/04/20 10:45:04;;;;;;;2.13;1.20;;;23.50;99.90;;;;;;4967679;28;20023;-78
2022/04/20 10:47:42;;;;;;;1.83;0.90;;;23.90;99.90;;;;;;4971655;28;20482;-78
2022/04/20 10:50:22;;;;;;;1.95;1.30;;;23.50;99.90;;;;;;4961289;28;20046;-79
2022/04/20 10:53:03;;;;;;;2.10;1.40;;;23.60;99.90;;;;;;4966924;28;20497;-79
2022/04/20 10:55:31;;;;;;;2.00;1.30;;;22.80;99.90;;;;;;4975422;28;20057;-82
2022/04/20 10:58:02;;;;;;;4.18;1.60;;;23.40;99.90;;;;;;4973604;28;20069;-80
2022/04/20 11:00:34;;;;;;;1.60;1.20;;;21.60;99.90;;;;;;4972014;28;20372;-80
2022/04/20 11:03:09;;;;;;;1.60;1.08;;;22.20;99.90;;;;;;4965559;28;20046;-78
2022/04/20 11:05:55;;;;;;;1.27;1.02;;;20.50;99.90;;;;;;4970319;28;20078;-78
2022/04/20 11:08:24;;;;;;;1.52;1.30;;;20.70;99.90;;;;;;4965646;28;20558;-78
2022/04/20 11:19:12;;;;;;;2.20;1.40;;;16.90;99.90;;;;;;4959606;28;20038;-79
2022/04/20 11:22:00;;;;;;;3.58;1.98;;;17.00;99.90;;;;;;4953173;28;20498;-78
2022/04/20 11:24:27;;;;;;;5.55;1.60;;;17.00;99.90;;;;;;4956640;28;20027;-78
2022/04/20 11:26:53;;;;;;;1.48;1.25;;;16.90;99.90;;;;;;4975265;28;20534;-78
2022/04/20 11:29:24;;;;;;;2.20;1.50;;;17.20;99.90;;;;;;4967958;28;20113;-79
2022/04/20 11:32:04;;;;;;;1.92;1.27;;;17.10;99.90;;;;;;4969501;28;20039;-78
2022/04/20 11:34:34;;;;;;;1.52;1.35;;;17.20;99.90;;;;;;4977384;28;20106;-79
2022/04/20 11:37:03;;;;;;;1.30;1.20;;;16.40;99.90;;;;;;4978245;28;20030;-78
2022/04/20 11:39:30;;;;;;;3.50;1.60;;;16.40;99.90;;;;;;4973507;28;20031;-78
2022/04/20 11:41:58;;;;;;;3.25;1.50;;;16.60;99.90;;;;;;4971197;28;20031;-79
2022/04/20 11:44:42;;;;;;;2.65;1.55;;;16.40;99.90;;;;;;4970859;28;20084;-78
2022/04/20 11:47:10;;;;;;;2.13;1.55;;;16.70;99.90;;;;;;4965809;28;20031;-78
2022/04/20 11:49:39;;;;;;;1.77;1.33;;;16.60;99.90;;;;;;4963668;28;20425;-78
2022/04/20 11:52:06;;;;;;;1.77;1.42;;;16.70;99.90;;;;;;4967363;28;20110;-78
2022/04/20 11:54:33;;;;;;;1.60;1.50;;;17.20;99.90;;;;;;4976683;28;20045;-79
2022/04/20 11:56:58;;;;;;;3.15;1.70;;;17.30;99.90;;;;;;4966232;28;20029;-78
2022/04/20 11:59:24;;;;;;;2.30;1.55;;;17.30;99.90;;;;;;4968117;28;20034;-79
2022/04/20 12:01:50;;;;;;;2.95;1.50;;;16.80;99.90;;;;;;4974500;28;20129;-78
2022/04/20 12:04:18;;;;;;;1.92;1.73;;;16.80;99.90;;;;;;4961342;28;20559;-78
2022/04/20 12:06:46;;;;;;;1.83;1.70;;;16.50;99.90;;;;;;4965001;28;20455;-79
2022/04/20 12:09:13;;;;;;;5.63;1.58;;;16.50;99.90;;;;;;4960352;28;20044;-79
2022/04/20 12:11:40;;;;;;;2.40;1.42;;;17.00;99.90;;;;;;4970973;28;20019;-79
2022/04/20 12:14:06;;;;;;;3.20;1.83;;;16.80;99.90;;;;;;4971364;28;20019;-79
2022/04/20 12:16:35;;;;;;;1.52;1.42;;;16.60;99.90;;;;;;4967873;28;20031;-79
2022/04/20 12:19:01;;;;;;;2.00;1.40;;;16.50;99.90;;;;;;4955328;28;20090;-78
2022/04/20 12:21:46;;;;;;;2.42;1.60;;;16.60;99.90;;;;;;4966048;28;20117;-78
2022/04/20 12:24:22;;;;;;;2.95;1.60;;;17.00;99.90;;;;;;4967837;28;20089;-79
2022/04/20 12:26:49;;;;;;;1.60;1.50;;;16.90;99.90;;;;;;4973838;28;20041;-79
2022/04/20 12:29:19;;;;;;;1.60;1.50;;;16.90;99.90;;;;;;4964468;28;20035;-80
2022/04/20 12:31:45;;;;;;;1.63;1.50;;;16.90;99.90;;;;;;4972224;28;20031;-80
2022/04/20 12:34:15;;;;;;;1.20;1.10;;;16.60;99.90;;;;;;4967705;28;20114;-80
2022/04/20 12:36:51;;;;;;;2.80;1.90;;;16.90;99.90;;;;;;4960875;28;20030;-80
2022/04/20 12:39:32;;;;;;;2.10;1.52;;;16.70;99.90;;;;;;4977313;28;20274;-80
2022/04/20 12:42:04;;;;;;;1.30;1.20;;;16.80;99.90;;;;;;4996646;28;20077;-80
2022/04/20 12:44:36;;;;;;;2.60;1.50;;;16.90;99.90;;;;;;4982825;28;20026;-80
2022/04/20 12:47:02;;;;;;;2.65;1.35;;;16.80;99.90;;;;;;4977594;28;20051;-80
2022/04/20 12:49:28;;;;;;;1.38;1.00;;;17.00;99.90;;;;;;4977187;28;20035;-80
2022/04/20 12:51:53;;;;;;;1.67;1.40;;;16.90;99.90;;;;;;4977260;28;20102;-80
2022/04/20 12:54:23;;;;;;;1.77;1.30;;;16.90;99.90;;;;;;4976433;28;20033;-80
2022/04/20 13:02:18;;;;;;;1.90;1.30;;;17.10;99.90;;;;;;4965460;28;20050;-80
2022/04/20 13:04:47;;;;;;;1.67;1.40;;;17.00;99.90;;;;;;4978715;28;20031;-80
2022/04/20 13:07:13;;;;;;;2.22;1.50;;;17.00;99.90;;;;;;4962745;28;20062;-80
2022/04/20 13:09:38;;;;;;;1.55;1.45;;;16.90;99.90;;;;;;4959797;28;20093;-80
2022/04/20 13:12:04;;;;;;;1.13;1.05;;;16.80;99.90;;;;;;4962335;28;20043;-81
2022/04/20 13:14:31;;;;;;;1.77;1.35;;;16.70;99.90;;;;;;4961932;28;20019;-81
2022/04/20 13:16:57;;;;;;;1.95;1.38;;;16.90;99.90;;;;;;4964311;28;20019;-81
2022/04/20 13:19:22;;;;;;;1.50;1.40;;;17.10;99.90;;;;;;4966258;28;20039;-81
2022/04/20 13:21:48;;;;;;;1.60;1.50;;;17.00;99.90;;;;;;4968616;28;20027;-81
2022/04/20 13:27:53;;;;;;;3.17;1.75;;;16.70;99.90;;;;;;4968951;28;20054;-81
2022/04/20 13:29:45;;;;;;;3.53;2.25;;;17.20;99.90;;;;;;4971639;28;20130;-81
2022/04/20 13:32:11;;;;;;;2.88;2.67;;;16.80;99.90;;;;;;4960886;28;20058;-82
2022/04/20 13:34:36;;;;;;;3.00;2.17;;;17.00;99.90;;;;;;4966219;28;20063;-81
2022/04/20 13:37:02;;;;;;;3.78;2.33;;;17.00;99.90;;;;;;4961275;28;20063;-81
2022/04/20 13:39:28;;;;;;;3.25;2.22;;;16.80;99.90;;;;;;4962806;28;20383;-81
2022/04/20 13:41:54;;;;;;;3.15;2.45;;;16.70;99.90;;;;;;4967992;28;20019;-81
2022/04/20 13:44:19;;;;;;;2.20;2.00;;;16.70;99.90;;;;;;4962926;28;20134;-81
2022/04/20 13:46:45;;;;;;;2.95;2.08;;;16.30;99.90;;;;;;4974114;28;20078;-81
2022/04/20 13:49:12;;;;;;;2.58;2.38;;;16.30;99.90;;;;;;4965379;28;20042;-81
2022/04/20 13:51:38;;;;;;;3.25;2.42;;;16.20;99.90;;;;;;4972717;28;20441;-81